Time,TemperatureF,DewpointF,PressureIn,WindDirection,WindDirectionDegrees,WindSpeedMPH,WindSpeedGustMPH,Humidity,HourlyPrecipIn,Conditions,Clouds,dailyrainin,SoftwareType,DateUTC
2013-04-10 00:03:00,33.0,31.7,29.83,NNW,330,28.0,28.0,95,0.06,,---,0.00,VWS V14.01,2013-04-10 05:03:00,
2013-04-10 00:09:00,32.8,31.5,29.85,NE,36,21.0,31.0,95,0.06,,---,0.00,VWS V14.01,2013-04-10 05:09:00,
2013-04-10 00:14:00,32.5,31.2,29.88,NW,318,15.0,33.0,95,0.06,,---,0.00,VWS V14.01,2013-04-10 05:14:00,
2013-04-10 00:19:00,32.3,31.0,29.91,NNW,333,24.0,33.0,95,0.07,,---,0.01,VWS V14.01,2013-04-10 05:19:00,
2013-04-10 00:24:00,32.5,31.2,29.94,NW,326,19.0,33.0,95,0.07,,---,0.01,VWS V14.01,2013-04-10 05:24:00,
2013-04-10 00:29:00,32.6,31.3,29.91,NNW,330,30.0,33.0,95,0.10,,---,0.04,VWS V14.01,2013-04-10 05:29:00,
2013-04-10 00:35:00,32.4,31.4,29.81,NW,319,24.0,39.0,96,0.11,,---,0.05,VWS V14.01,2013-04-10 05:35:00,
2013-04-10 00:40:00,32.3,31.3,29.87,NNW,337,18.0,39.0,96,0.12,,---,0.06,VWS V14.01,2013-04-10 05:40:00,
2013-04-10 00:45:00,32.1,31.1,29.87,NNW,331,26.0,39.0,96,0.12,,---,0.06,VWS V14.01,2013-04-10 05:45:00,
2013-04-10 05:30:00,30.1,28.8,30.05,SSE,158,6.0,12.0,95,0.00,,---,0.10,VWS V14.01,2013-04-10 10:30:00,
2013-04-10 06:24:00,30.1,28.8,30.05,SSE,158,6.0,12.0,95,0.00,,---,0.10,VWS V14.01,2013-04-10 11:24:00,
2013-04-10 06:37:00,29.6,28.4,30.01,SSE,149,5.0,6.0,95,0.05,,---,0.15,VWS V14.01,2013-04-10 11:37:00,
2013-04-10 06:42:00,29.4,28.1,30.01,SSE,149,5.0,8.0,95,0.05,,---,0.15,VWS V14.01,2013-04-10 11:42:00,
2013-04-10 17:00:00,46.4,32.4,30.00,NNW,338,10.0,21.0,58,0.00,,---,0.15,VWS V14.01,2013-04-10 22:00:00,
2013-04-10 17:57:00,48.0,32.2,29.98,NW,309,4.0,10.0,54,0.01,,---,0.16,VWS V14.01,2013-04-10 22:57:00,
2013-04-10 18:02:00,48.0,32.6,29.98,NW,325,7.0,12.0,55,0.01,,---,0.16,VWS V14.01,2013-04-10 23:02:00,
2013-04-10 18:08:00,48.1,31.3,29.98,NNW,328,9.0,14.0,52,0.01,,---,0.16,VWS V14.01,2013-04-10 23:08:00,
2013-04-10 18:13:00,48.1,31.3,29.99,NNW,345,7.0,16.0,52,0.01,,---,0.16,VWS V14.01,2013-04-10 23:13:00,
2013-04-10 18:18:00,48.1,31.8,29.99,NW,309,7.0,16.0,53,0.01,,---,0.16,VWS V14.01,2013-04-10 23:18:00,
2013-04-10 18:23:00,48.0,31.2,29.99,NW,323,4.0,16.0,52,0.01,,---,0.16,VWS V14.01,2013-04-10 23:23:00,
2013-04-10 18:28:00,48.0,29.8,29.99,NNW,330,8.0,17.0,49,0.01,,---,0.16,VWS V14.01,2013-04-10 23:28:00,
2013-04-10 18:33:00,47.9,30.2,29.99,NW,316,7.0,13.0,50,0.00,,---,0.16,VWS V14.01,2013-04-10 23:33:00,
2013-04-10 18:38:00,47.7,29.5,30.00,NNW,340,6.0,16.0,49,0.00,,---,0.16,VWS V14.01,2013-04-10 23:38:00,
2013-04-10 18:43:00,48.0,30.8,30.00,NW,312,5.0,16.0,51,0.00,,---,0.16,VWS V14.01,2013-04-10 23:43:00,
2013-04-10 18:48:00,48.1,30.4,30.00,NW,311,5.0,16.0,50,0.00,,---,0.16,VWS V14.01,2013-04-10 23:48:00,
2013-04-10 18:54:00,47.9,29.2,30.00,North,1,15.0,16.0,48,0.00,,---,0.16,VWS V14.01,2013-04-10 23:54:00,
2013-04-10 18:59:00,47.9,29.7,30.00,NW,316,5.0,16.0,49,0.00,,---,0.16,VWS V14.01,2013-04-10 23:59:00,
2013-04-10 19:04:00,47.9,30.2,30.00,NNW,330,8.0,12.0,50,0.00,,---,0.16,VWS V14.01,2013-04-11 00:04:00,
2013-04-10 19:09:00,47.8,29.6,30.00,NW,324,5.0,13.0,49,0.00,,---,0.16,VWS V14.01,2013-04-11 00:09:00,
2013-04-10 19:14:00,47.8,29.1,30.00,NW,326,8.0,13.0,48,0.00,,---,0.16,VWS V14.01,2013-04-11 00:14:00,
2013-04-10 19:19:00,47.7,29.5,30.00,NW,319,7.0,13.0,49,0.00,,---,0.16,VWS V14.01,2013-04-11 00:19:00,
2013-04-10 19:24:00,47.7,29.0,30.00,NW,321,6.0,13.0,48,0.00,,---,0.16,VWS V14.01,2013-04-11 00:24:00,
2013-04-10 19:29:00,47.7,29.5,30.00,NW,324,8.0,13.0,49,0.00,,---,0.16,VWS V14.01,2013-04-11 00:29:00,
2013-04-10 19:34:00,47.6,29.4,30.00,NW,322,5.0,7.0,49,0.00,,---,0.16,VWS V14.01,2013-04-11 00:34:00,
2013-04-10 19:40:00,47.4,30.2,30.00,NW,319,5.0,8.0,51,0.00,,---,0.16,VWS V14.01,2013-04-11 00:40:00,
2013-04-10 19:45:00,47.2,30.0,30.00,NW,318,3.0,11.0,51,0.00,,---,0.16,VWS V14.01,2013-04-11 00:45:00,
2013-04-10 19:50:00,46.8,29.6,30.00,NNW,344,6.0,11.0,51,0.00,,---,0.16,VWS V14.01,2013-04-11 00:50:00,
2013-04-10 19:55:00,46.6,29.5,30.00,NNW,330,5.0,11.0,51,0.00,,---,0.16,VWS V14.01,2013-04-11 00:55:00,
2013-04-10 20:00:00,46.1,29.5,30.01,NW,322,3.0,11.0,52,0.00,,---,0.16,VWS V14.01,2013-04-11 01:00:00,
2013-04-10 20:05:00,45.6,30.4,30.01,NW,322,3.0,5.0,55,0.00,,---,0.16,VWS V14.01,2013-04-11 01:05:00,
2013-04-10 20:10:00,45.2,30.0,30.01,NNW,344,3.0,5.0,55,0.00,,---,0.16,VWS V14.01,2013-04-11 01:10:00,
2013-04-10 20:15:00,44.8,30.5,30.01,NNW,344,4.0,5.0,57,0.00,,---,0.16,VWS V14.01,2013-04-11 01:15:00,
2013-04-10 20:20:00,44.5,30.2,30.01,NW,322,2.0,5.0,57,0.00,,---,0.16,VWS V14.01,2013-04-11 01:20:00,
2013-04-10 20:25:00,44.2,30.4,30.02,NNW,342,2.0,5.0,58,0.00,,---,0.16,VWS V14.01,2013-04-11 01:25:00,
2013-04-10 20:30:00,44.0,30.2,30.02,NNW,342,1.0,5.0,58,0.00,,---,0.16,VWS V14.01,2013-04-11 01:30:00,
2013-04-10 20:35:00,43.8,30.8,30.02,North,356,1.0,2.0,60,0.00,,---,0.16,VWS V14.01,2013-04-11 01:35:00,
2013-04-10 20:41:00,43.6,31.5,30.02,North,8,1.0,2.0,62,0.00,,---,0.16,VWS V14.01,2013-04-11 01:41:00,
2013-04-10 20:47:00,43.5,31.4,30.02,North,8,2.0,2.0,62,0.00,,---,0.16,VWS V14.01,2013-04-11 01:47:00,
2013-04-10 20:52:00,43.4,31.3,30.02,North,8,1.0,2.0,62,0.00,,---,0.16,VWS V14.01,2013-04-11 01:52:00,
2013-04-10 20:57:00,43.2,30.7,30.02,North,8,2.0,2.0,61,0.00,,---,0.16,VWS V14.01,2013-04-11 01:57:00,
2013-04-10 21:02:00,43.1,31.4,30.02,North,359,1.0,2.0,63,0.00,,---,0.16,VWS V14.01,2013-04-11 02:02:00,
2013-04-10 21:07:00,42.8,31.1,30.02,North,359,0.0,2.0,63,0.00,,---,0.16,VWS V14.01,2013-04-11 02:07:00,
2013-04-10 21:12:00,42.3,31.4,30.02,North,359,0.0,2.0,65,0.00,,---,0.16,VWS V14.01,2013-04-11 02:12:00,
2013-04-10 21:17:00,41.9,31.0,30.03,North,359,0.0,2.0,65,0.00,,---,0.16,VWS V14.01,2013-04-11 02:17:00,
2013-04-10 21:23:00,41.2,30.7,30.03,North,359,0.0,2.0,66,0.00,,---,0.16,VWS V14.01,2013-04-11 02:23:00,
2013-04-10 21:28:00,41.3,30.8,30.03,North,359,0.0,2.0,66,0.00,,---,0.16,VWS V14.01,2013-04-11 02:28:00,
2013-04-10 21:33:00,41.5,31.4,30.03,North,359,1.0,1.0,67,0.00,,---,0.16,VWS V14.01,2013-04-11 02:33:00,
2013-04-10 21:38:00,41.0,32.7,30.03,North,359,2.0,2.0,72,0.00,,---,0.16,VWS V14.01,2013-04-11 02:38:00,
2013-04-10 21:43:00,40.5,32.2,30.04,North,359,0.0,2.0,72,0.00,,---,0.16,VWS V14.01,2013-04-11 02:43:00,
2013-04-10 21:48:00,40.2,31.6,30.04,North,358,0.0,2.0,71,0.00,,---,0.16,VWS V14.01,2013-04-11 02:48:00,
2013-04-10 21:53:00,40.4,31.4,30.04,SSW,211,2.0,2.0,70,0.00,,---,0.16,VWS V14.01,2013-04-11 02:53:00,
2013-04-10 21:58:00,40.6,31.6,30.04,SSW,211,0.0,2.0,70,0.00,,---,0.16,VWS V14.01,2013-04-11 02:58:00,
2013-04-10 22:03:00,40.2,31.2,30.04,SSW,211,0.0,1.0,70,0.00,,---,0.16,VWS V14.01,2013-04-11 03:03:00,
2013-04-10 22:08:00,40.1,31.5,30.04,SSW,211,1.0,1.0,71,0.00,,---,0.16,VWS V14.01,2013-04-11 03:08:00,
2013-04-10 22:13:00,40.3,31.7,30.04,SSW,211,0.0,1.0,71,0.00,,---,0.16,VWS V14.01,2013-04-11 03:13:00,
2013-04-10 22:19:00,40.4,31.4,30.04,SSW,211,0.0,1.0,70,0.00,,---,0.16,VWS V14.01,2013-04-11 03:19:00,
2013-04-10 22:24:00,40.1,31.8,30.04,SSW,211,0.0,1.0,72,0.00,,---,0.16,VWS V14.01,2013-04-11 03:24:00,
2013-04-10 22:29:00,39.7,31.8,30.04,SSW,211,0.0,1.0,73,0.00,,---,0.16,VWS V14.01,2013-04-11 03:29:00,
2013-04-10 22:34:00,39.2,32.3,30.05,SSW,211,0.0,1.0,76,0.00,,---,0.16,VWS V14.01,2013-04-11 03:34:00,
2013-04-10 22:39:00,38.4,33.7,30.05,SSW,211,1.0,1.0,83,0.00,,---,0.16,VWS V14.01,2013-04-11 03:39:00,
2013-04-10 22:44:00,37.9,33.8,30.05,SSW,211,1.0,1.0,85,0.00,,---,0.16,VWS V14.01,2013-04-11 03:44:00,
2013-04-10 22:49:00,37.7,33.6,30.05,WSW,248,1.0,2.0,85,0.00,,---,0.16,VWS V14.01,2013-04-11 03:49:00,
2013-04-10 22:54:00,37.5,32.5,30.05,WSW,247,1.0,2.0,82,0.00,,---,0.16,VWS V14.01,2013-04-11 03:54:00,
2013-04-10 22:59:00,37.2,32.5,30.05,West,277,1.0,2.0,83,0.00,,---,0.16,VWS V14.01,2013-04-11 03:59:00,
2013-04-10 23:00:00,37.2,32.5,30.05,West,277,1.0,2.0,83,0.00,,---,0.16,VWS V14.01,2013-04-11 04:00:00,
2013-04-10 23:06:00,36.8,32.1,30.05,West,277,0.0,1.0,83,0.00,,---,0.16,VWS V14.01,2013-04-11 04:06:00,
2013-04-10 23:11:00,36.6,31.6,30.05,West,277,1.0,1.0,82,0.00,,---,0.16,VWS V14.01,2013-04-11 04:11:00,
2013-04-10 23:16:00,36.4,32.3,30.05,West,277,1.0,2.0,85,0.00,,---,0.16,VWS V14.01,2013-04-11 04:16:00,
2013-04-10 23:21:00,36.4,31.7,30.04,NW,309,2.0,2.0,83,0.00,,---,0.16,VWS V14.01,2013-04-11 04:21:00,
2013-04-10 23:26:00,36.9,31.9,30.04,NW,318,2.0,2.0,82,0.00,,---,0.16,VWS V14.01,2013-04-11 04:26:00,
2013-04-10 23:31:00,36.9,32.2,30.03,NW,321,3.0,3.0,83,0.00,,---,0.16,VWS V14.01,2013-04-11 04:31:00,
2013-04-10 23:36:00,36.7,32.6,30.03,NW,324,2.0,3.0,85,0.00,,---,0.16,VWS V14.01,2013-04-11 04:36:00,
2013-04-10 23:41:00,36.5,32.1,30.03,NW,326,2.0,3.0,84,0.00,,---,0.16,VWS V14.01,2013-04-11 04:41:00,
2013-04-10 23:46:00,36.5,31.8,30.02,NNW,335,2.0,3.0,83,0.00,,---,0.16,VWS V14.01,2013-04-11 04:46:00,
2013-04-10 23:51:00,36.7,32.0,30.02,NNW,329,2.0,4.0,83,0.00,,---,0.16,VWS V14.01,2013-04-11 04:51:00,
2013-04-10 23:57:00,36.7,31.7,30.02,NW,324,4.0,4.0,82,0.00,,---,0.16,VWS V14.01,2013-04-11 04:57:00,